Time;durP1;ratioP1;P1;durP2;ratioP2;P2;SDS_P1;SDS_P2;PMS_P1;PMS_P2;Temp;Humidity;BMP_temperature;BMP_pressure;BME280_temperature;BME280_humidity;BME280_pressure;Samples;Min_cycle;Max_cycle;Signal;HPM_P1;HPM_P2
2022/12/13 00:01:56;;;;;;;11.43;5.32;;;-7.00;99.90;;;;;;4990013;28;20226;-64
2022/12/13 00:04:24;;;;;;;8.93;7.45;;;-7.00;99.90;;;;;;4991205;28;20218;-63
2022/12/13 00:06:52;;;;;;;20.83;9.05;;;-6.90;99.90;;;;;;4990717;28;20235;-64
2022/12/13 00:09:19;;;;;;;11.20;7.85;;;-6.90;99.90;;;;;;4990589;28;20248;-63
2022/12/13 00:11:47;;;;;;;11.45;6.90;;;-7.00;99.90;;;;;;4989726;28;20598;-64
2022/12/13 00:14:14;;;;;;;11.70;5.78;;;-6.90;99.90;;;;;;4990271;28;20210;-64
2022/12/13 00:16:44;;;;;;;8.88;6.00;;;-7.00;99.90;;;;;;4990674;28;20753;-64
2022/12/13 00:19:12;;;;;;;12.00;6.80;;;-7.00;99.90;;;;;;4990196;28;20237;-64
2022/12/13 00:21:39;;;;;;;10.65;4.85;;;-7.00;99.90;;;;;;4990275;28;20849;-64
2022/12/13 00:24:07;;;;;;;20.90;5.45;;;-7.00;99.90;;;;;;4989781;28;20234;-64
2022/12/13 00:26:34;;;;;;;10.32;7.75;;;-7.00;99.90;;;;;;4989970;28;20949;-65
2022/12/13 00:29:02;;;;;;;12.77;7.07;;;-7.00;99.90;;;;;;4988967;28;20204;-64
2022/12/13 00:31:30;;;;;;;10.45;6.35;;;-7.00;99.90;;;;;;4989759;28;20220;-63
2022/12/13 00:33:57;;;;;;;12.13;6.25;;;-7.00;99.90;;;;;;4989979;28;20670;-63
2022/12/13 00:36:26;;;;;;;9.88;6.50;;;-7.00;99.90;;;;;;4989328;28;20203;-64
2022/12/13 00:39:00;;;;;;;9.68;6.00;;;-7.10;99.90;;;;;;4990492;28;20711;-64
2022/12/13 00:41:29;;;;;;;8.00;4.93;;;-7.00;99.90;;;;;;4989471;28;20232;-65
2022/12/13 00:43:56;;;;;;;7.28;5.93;;;-7.10;99.90;;;;;;4989716;28;20217;-64
2022/12/13 00:46:22;;;;;;;10.10;5.90;;;-7.10;99.90;;;;;;4989906;28;20682;-64
2022/12/13 00:48:51;;;;;;;7.47;5.65;;;-7.10;99.90;;;;;;4989518;28;20203;-64
2022/12/13 00:51:18;;;;;;;13.30;6.97;;;-7.10;99.90;;;;;;4989411;28;20222;-65
2022/12/13 00:53:47;;;;;;;12.93;7.78;;;-7.10;99.90;;;;;;4989968;28;20207;-64
2022/12/13 00:56:15;;;;;;;12.52;6.50;;;-7.10;99.90;;;;;;4989794;28;20237;-63
2022/12/13 00:58:43;;;;;;;9.57;5.93;;;-7.10;99.90;;;;;;4989563;28;20227;-65
2022/12/13 01:01:13;;;;;;;12.60;6.35;;;-7.20;99.90;;;;;;4988040;28;20518;-64
2022/12/13 01:03:41;;;;;;;10.38;7.15;;;-7.20;99.90;;;;;;4989946;28;20311;-65
2022/12/13 01:06:13;;;;;;;18.00;8.50;;;-7.20;99.90;;;;;;4988874;28;20475;-65
2022/12/13 01:08:40;;;;;;;9.45;5.88;;;-7.20;99.90;;;;;;4989855;28;20239;-63
2022/12/13 01:11:08;;;;;;;7.45;5.60;;;-7.20;99.90;;;;;;4988576;28;20206;-64
2022/12/13 01:13:36;;;;;;;8.93;5.38;;;-7.20;99.90;;;;;;4989986;28;20299;-65
2022/12/13 01:16:05;;;;;;;9.75;4.93;;;-7.30;99.90;;;;;;4989851;28;20595;-62
2022/12/13 01:18:32;;;;;;;12.65;5.85;;;-7.30;99.90;;;;;;4989276;28;20234;-65
2022/12/13 01:21:00;;;;;;;8.68;6.45;;;-7.30;99.90;;;;;;4988495;28;20215;-64
2022/12/13 01:23:28;;;;;;;10.23;5.97;;;-7.30;99.90;;;;;;4988498;28;20550;-65
2022/12/13 01:25:55;;;;;;;11.40;6.15;;;-7.30;99.90;;;;;;4988794;28;20217;-63
2022/12/13 01:28:24;;;;;;;7.88;5.38;;;-7.30;99.90;;;;;;4988852;28;20237;-62
2022/12/13 01:30:56;;;;;;;10.80;6.82;;;-7.30;99.90;;;;;;4988908;28;20638;-64
2022/12/13 01:33:23;;;;;;;9.45;6.50;;;-7.40;99.90;;;;;;4989201;28;20203;-64
2022/12/13 01:35:50;;;;;;;5.43;4.43;;;-7.40;99.90;;;;;;4988742;28;20574;-64
2022/12/13 01:38:17;;;;;;;8.50;6.22;;;-7.40;99.90;;;;;;4988778;28;20241;-65
2022/12/13 01:40:46;;;;;;;10.13;5.47;;;-7.50;99.90;;;;;;4988097;28;20752;-65
2022/12/13 01:43:13;;;;;;;13.93;8.60;;;-7.40;99.90;;;;;;4988312;28;20657;-64
2022/12/13 01:45:41;;;;;;;14.95;7.97;;;-7.50;99.90;;;;;;4988745;28;20207;-65
2022/12/13 01:48:13;;;;;;;14.30;7.68;;;-7.50;99.90;;;;;;5055439;23;20254;-92
2022/12/13 01:50:45;;;;;;;14.15;8.07;;;-7.50;99.90;;;;;;4989281;28;20220;-93
2022/12/13 01:53:17;;;;;;;12.88;7.35;;;-7.50;99.90;;;;;;4989132;28;20202;-93
2022/12/13 01:55:47;;;;;;;9.73;5.63;;;-7.60;99.90;;;;;;4997624;28;20204;-93
2022/12/13 01:58:15;;;;;;;7.00;4.80;;;-7.60;99.90;;;;;;4998304;28;20223;-92
2022/12/13 02:00:45;;;;;;;13.88;8.70;;;-7.60;99.90;;;;;;4998075;28;20190;-93
2022/12/13 02:03:14;;;;;;;8.13;4.63;;;-7.60;99.90;;;;;;4998297;28;20219;-94
2022/12/13 02:05:45;;;;;;;8.88;6.65;;;-7.60;99.90;;;;;;4998490;28;20211;-92
2022/12/13 02:08:15;;;;;;;13.77;6.50;;;-7.60;99.90;;;;;;4998637;28;20231;-94
2022/12/13 02:10:43;;;;;;;11.93;8.15;;;-7.70;99.90;;;;;;4998144;28;20197;-94
2022/12/13 02:13:10;;;;;;;9.20;5.72;;;-7.70;99.90;;;;;;4998456;28;20198;-93
2022/12/13 02:15:53;;;;;;;8.55;6.28;;;-7.70;99.90;;;;;;4998082;28;20251;-94
2022/12/13 02:18:35;;;;;;;9.50;6.57;;;-7.80;99.90;;;;;;4997726;28;20203;-91
2022/12/13 02:21:13;;;;;;;9.80;4.80;;;-7.80;99.90;;;;;;4997376;28;20190;-94
2022/12/13 02:24:10;;;;;;;12.40;6.25;;;-7.80;99.90;;;;;;4997879;28;20215;-94
2022/12/13 02:26:52;;;;;;;14.88;5.10;;;-7.80;99.90;;;;;;4982064;28;20542;-94
2022/12/13 02:29:56;;;;;;;12.10;7.28;;;-7.80;99.90;;;;;;4982665;28;20319;-95
2022/12/13 02:32:32;;;;;;;6.45;4.97;;;-7.80;99.90;;;;;;4978389;28;20212;-94
2022/12/13 02:35:05;;;;;;;8.20;6.05;;;-7.80;99.90;;;;;;4978607;28;20169;-94
2022/12/13 02:37:45;;;;;;;9.65;7.00;;;-7.80;99.90;;;;;;4978207;28;20194;-93
2022/12/13 02:40:21;;;;;;;6.20;5.25;;;-7.80;99.90;;;;;;4978176;28;20213;-94
2022/12/13 02:42:55;;;;;;;13.10;6.28;;;-7.90;99.90;;;;;;4978074;28;20287;-93
2022/12/13 02:45:28;;;;;;;12.35;6.63;;;-7.90;99.90;;;;;;4978130;28;20194;-94
2022/12/13 02:48:00;;;;;;;10.60;5.85;;;-7.90;99.90;;;;;;4978365;28;20232;-93
2022/12/13 02:50:28;;;;;;;4.47;3.95;;;-7.90;99.90;;;;;;4978569;28;20196;-93
2022/12/13 02:52:56;;;;;;;9.40;6.28;;;-7.90;99.90;;;;;;4982256;28;20232;-93
2022/12/13 02:55:23;;;;;;;8.38;5.78;;;-8.00;99.90;;;;;;4982355;28;20215;-93
2022/12/13 02:57:50;;;;;;;9.95;5.47;;;-8.00;99.90;;;;;;4982297;28;20195;-95
2022/12/13 03:00:21;;;;;;;14.15;5.55;;;-8.00;99.90;;;;;;4982203;28;20187;-94
2022/12/13 03:03:06;;;;;;;14.73;8.18;;;-8.00;99.90;;;;;;4982080;28;20201;-94
2022/12/13 03:08:31;;;;;;;9.73;6.07;;;-8.10;99.90;;;;;;4982057;28;20216;-93
2022/12/13 03:11:04;;;;;;;10.70;5.35;;;-8.10;99.90;;;;;;4981556;28;20218;-93
2022/12/13 03:13:38;;;;;;;8.90;6.50;;;-8.10;99.90;;;;;;4981917;28;20210;-92
2022/12/13 03:16:10;;;;;;;11.32;6.57;;;-8.10;99.90;;;;;;4981719;28;20185;-93
2022/12/13 03:18:41;;;;;;;10.40;6.13;;;-8.10;99.90;;;;;;4981291;28;20262;-93
2022/12/13 03:21:09;;;;;;;11.50;6.82;;;-8.10;99.90;;;;;;4981576;28;20194;-93
2022/12/13 03:23:37;;;;;;;10.80;6.22;;;-8.10;99.90;;;;;;4981665;28;20284;-92
2022/12/13 03:26:09;;;;;;;8.35;4.47;;;-8.10;99.90;;;;;;4981758;28;20192;-93
2022/12/13 03:28:37;;;;;;;13.07;8.30;;;-8.10;99.90;;;;;;4981104;28;20228;-93
2022/12/13 03:31:05;;;;;;;11.32;6.35;;;-8.20;99.90;;;;;;4981318;28;20216;-93
2022/12/13 03:33:32;;;;;;;6.93;6.22;;;-8.20;99.90;;;;;;4981338;28;20207;-92
2022/12/13 03:36:02;;;;;;;13.05;6.57;;;-8.20;99.90;;;;;;4981562;28;20183;-92
2022/12/13 03:38:30;;;;;;;10.73;7.03;;;-8.20;99.90;;;;;;5001111;23;20235;-66
2022/12/13 03:40:59;;;;;;;11.73;6.70;;;-8.20;99.90;;;;;;4992494;28;20320;-66
2022/12/13 03:43:26;;;;;;;12.68;7.10;;;-8.20;99.90;;;;;;4993986;28;20221;-66
2022/12/13 03:45:54;;;;;;;9.13;6.32;;;-8.20;99.90;;;;;;4993600;28;20215;-66
2022/12/13 03:48:21;;;;;;;5.28;4.70;;;-8.20;99.90;;;;;;4975653;28;20312;-66
2022/12/13 03:50:48;;;;;;;8.73;4.88;;;-8.20;99.90;;;;;;4973420;28;20965;-66
2022/12/13 03:53:16;;;;;;;8.85;4.78;;;-8.20;99.90;;;;;;4971960;28;20200;-66
2022/12/13 03:55:43;;;;;;;9.10;5.65;;;-8.20;99.90;;;;;;4973952;28;20206;-66
2022/12/13 03:58:10;;;;;;;10.02;6.07;;;-8.20;99.90;;;;;;4973996;28;20228;-66
2022/12/13 04:00:36;;;;;;;6.00;5.32;;;-8.20;99.90;;;;;;4973456;28;20206;-67
2022/12/13 04:03:03;;;;;;;18.83;7.85;;;-8.20;99.90;;;;;;4974154;28;20237;-67
2022/12/13 04:05:30;;;;;;;7.95;5.00;;;-8.20;99.90;;;;;;4973425;28;20207;-66
2022/12/13 04:07:57;;;;;;;12.60;6.72;;;-8.30;99.90;;;;;;4974111;28;20227;-66
2022/12/13 04:10:25;;;;;;;11.30;5.65;;;-8.30;99.90;;;;;;4974276;28;20211;-66
2022/12/13 04:15:36;;;;;;;8.90;5.38;;;-8.30;99.90;;;;;;4973957;28;20240;-67
2022/12/13 04:18:03;;;;;;;13.10;7.18;;;-8.30;99.90;;;;;;4971889;28;20715;-67
2022/12/13 04:20:30;;;;;;;5.95;5.45;;;-8.30;99.90;;;;;;4972998;28;20211;-67
2022/12/13 04:22:56;;;;;;;8.90;6.07;;;-8.30;99.90;;;;;;4975023;28;20236;-67
2022/12/13 04:25:31;;;;;;;9.88;5.82;;;-8.20;99.90;;;;;;4974602;28;20204;-67
2022/12/13 04:27:57;;;;;;;10.95;4.97;;;-8.30;99.90;;;;;;4972246;28;20230;-66
2022/12/13 04:30:24;;;;;;;10.30;6.25;;;-8.30;99.90;;;;;;4973194;28;20212;-67
2022/12/13 04:32:51;;;;;;;7.82;6.15;;;-8.30;99.90;;;;;;4973511;28;20200;-67
2022/12/13 04:35:17;;;;;;;19.33;6.45;;;-8.30;99.90;;;;;;4973235;28;20213;-67
2022/12/13 04:37:44;;;;;;;9.43;6.82;;;-8.30;99.90;;;;;;4965552;28;20239;-66
2022/12/13 04:40:12;;;;;;;6.72;5.32;;;-8.30;99.90;;;;;;4961960;28;20199;-67
2022/12/13 04:42:40;;;;;;;6.80;4.68;;;-8.30;99.90;;;;;;4961691;28;20243;-66
2022/12/13 04:45:09;;;;;;;11.02;4.88;;;-8.30;99.90;;;;;;4961808;28;20201;-66
2022/12/13 04:47:36;;;;;;;12.15;5.35;;;-8.30;99.90;;;;;;4962942;28;20216;-67
2022/12/13 04:50:02;;;;;;;12.02;6.60;;;-8.30;99.90;;;;;;4962718;28;20800;-67
2022/12/13 04:52:29;;;;;;;6.57;4.38;;;-8.20;99.90;;;;;;4961221;28;20205;-67
2022/12/13 04:54:56;;;;;;;5.18;3.22;;;-8.30;99.90;;;;;;4956916;28;20211;-67
2022/12/13 04:57:23;;;;;;;9.57;6.18;;;-8.20;99.90;;;;;;4964684;28;20706;-67
2022/12/13 04:59:51;;;;;;;7.63;3.83;;;-8.30;99.90;;;;;;4960914;28;20207;-67
2022/12/13 05:02:18;;;;;;;6.00;4.40;;;-8.30;99.90;;;;;;4962381;28;20555;-67
2022/12/13 05:04:45;;;;;;;9.38;5.20;;;-8.30;99.90;;;;;;4960742;28;20268;-67
2022/12/13 05:07:12;;;;;;;6.15;4.65;;;-8.30;99.90;;;;;;4963194;28;20227;-67
2022/12/13 05:09:39;;;;;;;10.32;4.82;;;-8.30;99.90;;;;;;4961594;28;20215;-67
2022/12/13 05:12:06;;;;;;;5.03;3.80;;;-8.30;99.90;;;;;;4961142;28;20201;-67
2022/12/13 05:14:33;;;;;;;5.30;4.47;;;-8.30;99.90;;;;;;4961232;28;20197;-66
2022/12/13 05:17:02;;;;;;;6.40;3.92;;;-8.40;99.90;;;;;;4961755;28;20232;-66
2022/12/13 05:19:29;;;;;;;11.40;4.47;;;-8.40;99.90;;;;;;4962817;28;20192;-66
2022/12/13 05:21:56;;;;;;;4.40;4.00;;;-8.30;99.90;;;;;;4960572;28;20206;-66
2022/12/13 05:24:22;;;;;;;10.40;6.25;;;-8.40;99.90;;;;;;4956437;28;20210;-66
2022/12/13 05:26:50;;;;;;;5.60;3.78;;;-8.30;99.90;;;;;;4968004;28;20224;-66
2022/12/13 05:29:17;;;;;;;17.52;4.63;;;-8.40;99.90;;;;;;4963987;28;20847;-66
2022/12/13 05:31:44;;;;;;;9.27;5.80;;;-8.30;99.90;;;;;;4959147;28;20208;-66
2022/12/13 05:34:12;;;;;;;9.50;4.70;;;-8.30;99.90;;;;;;4953568;29;20216;-66
2022/12/13 05:36:38;;;;;;;13.35;4.82;;;-8.30;99.90;;;;;;4953595;29;20215;-67
2022/12/13 05:39:05;;;;;;;4.50;3.83;;;-8.30;99.90;;;;;;4960003;29;20210;-67
2022/12/13 05:41:35;;;;;;;11.02;5.45;;;-8.20;99.90;;;;;;4951912;29;20271;-67
2022/12/13 05:44:02;;;;;;;5.68;4.30;;;-8.30;99.90;;;;;;4952869;29;20228;-67
2022/12/13 05:46:29;;;;;;;5.60;2.45;;;-8.30;99.90;;;;;;4952743;29;20211;-67
2022/12/13 05:48:55;;;;;;;12.98;4.75;;;-8.30;99.90;;;;;;4952388;29;20574;-68
2022/12/13 05:51:24;;;;;;;13.70;6.15;;;-8.30;99.90;;;;;;4952510;29;20720;-67
2022/12/13 05:53:51;;;;;;;6.70;5.00;;;-8.30;99.90;;;;;;4952719;29;20225;-67
2022/12/13 05:56:17;;;;;;;5.72;4.05;;;-8.30;99.90;;;;;;4953002;28;20205;-67
2022/12/13 05:58:44;;;;;;;5.60;3.80;;;-8.30;99.90;;;;;;4952285;28;20234;-67
2022/12/13 06:01:13;;;;;;;8.35;4.88;;;-8.30;99.90;;;;;;4952550;29;20215;-67
2022/12/13 06:03:40;;;;;;;4.93;3.97;;;-8.40;99.90;;;;;;4952580;29;20609;-67
2022/12/13 06:06:09;;;;;;;6.68;4.82;;;-8.40;99.90;;;;;;4952464;29;20206;-67
2022/12/13 06:08:37;;;;;;;7.13;3.97;;;-8.40;99.90;;;;;;4952666;28;20226;-67
2022/12/13 06:11:06;;;;;;;7.10;4.00;;;-8.40;99.90;;;;;;4951799;29;20251;-67
2022/12/13 06:13:33;;;;;;;8.82;4.35;;;-8.40;99.90;;;;;;4952640;29;20205;-67
2022/12/13 06:16:01;;;;;;;6.07;5.57;;;-8.40;99.90;;;;;;4952432;29;20208;-67
2022/12/13 06:18:29;;;;;;;6.60;4.22;;;-8.40;99.90;;;;;;4952394;29;20236;-67
2022/12/13 06:20:57;;;;;;;11.93;4.05;;;-8.40;99.90;;;;;;4951784;29;20205;-67
2022/12/13 06:23:24;;;;;;;5.70;3.25;;;-8.40;99.90;;;;;;4952125;29;20205;-67
2022/12/13 06:25:52;;;;;;;4.88;4.10;;;-8.50;99.90;;;;;;4953125;28;20213;-67
2022/12/13 06:28:19;;;;;;;7.10;4.05;;;-8.40;99.90;;;;;;4956535;29;20235;-67
2022/12/13 06:30:46;;;;;;;12.23;5.22;;;-8.40;99.90;;;;;;4955561;29;20587;-67
2022/12/13 06:33:13;;;;;;;6.00;4.05;;;-8.50;99.90;;;;;;4956404;29;20225;-67
2022/12/13 06:35:39;;;;;;;4.68;4.15;;;-8.50;99.90;;;;;;4955750;29;20206;-67
2022/12/13 06:38:06;;;;;;;7.53;4.07;;;-8.50;99.90;;;;;;4956176;29;20725;-67
2022/12/13 06:40:33;;;;;;;12.15;5.68;;;-8.50;99.90;;;;;;4955908;29;20211;-67
2022/12/13 06:43:01;;;;;;;8.57;4.38;;;-8.50;99.90;;;;;;4955501;29;20300;-66
2022/12/13 06:45:28;;;;;;;8.13;4.75;;;-8.50;99.90;;;;;;4956481;29;20293;-67
2022/12/13 06:47:56;;;;;;;7.70;4.07;;;-8.50;99.90;;;;;;4955356;29;20233;-67
2022/12/13 06:50:23;;;;;;;5.65;3.67;;;-8.50;99.90;;;;;;4955616;28;20205;-67
2022/12/13 06:52:50;;;;;;;4.95;4.05;;;-8.50;99.90;;;;;;4955755;29;20221;-67
2022/12/13 06:55:16;;;;;;;7.18;4.75;;;-8.50;99.90;;;;;;4955644;29;20208;-67
2022/12/13 06:57:43;;;;;;;4.03;3.63;;;-8.50;99.90;;;;;;4955599;29;20223;-67
2022/12/13 07:00:13;;;;;;;5.78;4.07;;;-8.50;99.90;;;;;;4955313;29;20216;-67
2022/12/13 07:02:39;;;;;;;7.88;4.40;;;-8.50;99.90;;;;;;4955214;29;20207;-67
2022/12/13 07:05:07;;;;;;;4.40;3.90;;;-8.50;99.90;;;;;;4956226;29;20560;-67
2022/12/13 07:07:34;;;;;;;10.32;6.28;;;-8.50;99.90;;;;;;4956742;29;20228;-67
2022/12/13 07:10:01;;;;;;;7.13;4.97;;;-8.50;99.90;;;;;;4956760;29;20220;-67
2022/12/13 07:12:28;;;;;;;6.50;4.55;;;-8.50;99.90;;;;;;4955043;29;20209;-67
2022/12/13 07:14:55;;;;;;;6.15;4.38;;;-8.50;99.90;;;;;;4955309;29;20224;-67
2022/12/13 07:17:23;;;;;;;5.43;3.50;;;-8.50;99.90;;;;;;4955583;29;20276;-67
2022/12/13 07:19:49;;;;;;;7.68;4.85;;;-8.40;99.90;;;;;;4955138;29;20229;-67
2022/12/13 07:22:16;;;;;;;4.93;2.83;;;-8.40;99.90;;;;;;4955195;29;20201;-67
2022/12/13 07:24:43;;;;;;;7.72;4.78;;;-8.40;99.90;;;;;;4955311;29;20209;-67
2022/12/13 07:27:10;;;;;;;6.22;4.72;;;-8.40;99.90;;;;;;4955384;29;20231;-67
2022/12/13 07:29:37;;;;;;;15.98;4.90;;;-8.30;99.90;;;;;;4955224;29;20676;-67
2022/12/13 07:32:04;;;;;;;6.60;4.82;;;-8.30;99.90;;;;;;4954623;29;20218;-67
2022/12/13 07:34:33;;;;;;;4.68;2.95;;;-8.30;99.90;;;;;;4955237;29;20229;-67
2022/12/13 07:36:59;;;;;;;6.80;3.55;;;-8.20;99.90;;;;;;4953824;28;20239;-66
2022/12/13 07:39:26;;;;;;;3.42;3.13;;;-8.10;99.90;;;;;;4960418;28;20192;-67
2022/12/13 07:41:54;;;;;;;6.88;3.75;;;-8.00;99.90;;;;;;4954202;28;20206;-67
2022/12/13 07:44:21;;;;;;;3.38;3.15;;;-8.00;99.90;;;;;;4964327;28;20240;-67
2022/12/13 07:46:48;;;;;;;10.60;5.05;;;-7.90;99.90;;;;;;4963191;28;20220;-67
2022/12/13 07:49:15;;;;;;;4.72;3.55;;;-7.70;99.90;;;;;;4954404;28;20212;-67
2022/12/13 07:51:43;;;;;;;9.60;3.60;;;-7.70;99.90;;;;;;4954060;29;20228;-66
2022/12/13 07:54:09;;;;;;;8.57;4.18;;;-7.50;99.90;;;;;;4954813;28;20226;-67
2022/12/13 07:56:36;;;;;;;6.97;4.50;;;-7.40;99.90;;;;;;4957498;28;20584;-70
2022/12/13 07:59:03;;;;;;;10.82;4.75;;;-7.30;99.90;;;;;;4974106;28;20569;-67
2022/12/13 08:01:33;;;;;;;5.80;4.22;;;-7.20;99.90;;;;;;4972944;28;20207;-67
2022/12/13 08:04:00;;;;;;;6.78;4.43;;;-7.00;99.90;;;;;;4979687;28;20200;-67
2022/12/13 08:06:26;;;;;;;5.25;4.25;;;-6.80;99.90;;;;;;4993276;28;20550;-67
2022/12/13 08:08:56;;;;;;;8.18;4.57;;;-6.60;99.90;;;;;;4977870;28;20209;-67
2022/12/13 08:11:23;;;;;;;8.13;4.57;;;-6.30;99.90;;;;;;4991250;28;20199;-67
2022/12/13 08:13:50;;;;;;;4.82;4.38;;;-6.00;99.90;;;;;;4992267;28;20219;-67
2022/12/13 08:16:17;;;;;;;11.65;5.30;;;-5.50;99.90;;;;;;4993001;28;20210;-67
2022/12/13 08:18:46;;;;;;;5.55;4.20;;;-5.10;99.90;;;;;;4992432;28;20242;-68
2022/12/13 08:21:13;;;;;;;6.25;4.28;;;-4.90;99.90;;;;;;4992400;28;20254;-68
2022/12/13 08:23:40;;;;;;;6.50;4.30;;;-4.70;99.90;;;;;;4992640;28;20231;-68
2022/12/13 08:26:08;;;;;;;10.02;5.07;;;-4.60;99.90;;;;;;4992020;28;20672;-68
2022/12/13 08:28:36;;;;;;;12.27;4.97;;;-4.40;99.90;;;;;;4992224;28;20223;-68
2022/12/13 08:31:05;;;;;;;8.10;4.68;;;-4.30;99.90;;;;;;4991724;28;20199;-68
2022/12/13 08:33:33;;;;;;;9.20;5.35;;;-4.20;99.90;;;;;;4992261;28;20257;-68
2022/12/13 08:36:07;;;;;;;10.52;4.90;;;-4.10;99.90;;;;;;4977312;28;20208;-68
2022/12/13 08:38:34;;;;;;;8.70;4.82;;;-3.90;99.90;;;;;;4972277;28;20235;-68
2022/12/13 08:41:01;;;;;;;9.00;5.68;;;-3.70;99.90;;;;;;4976174;28;20219;-68
2022/12/13 08:43:29;;;;;;;6.43;5.55;;;-3.50;99.90;;;;;;4978097;28;20209;-68
2022/12/13 08:45:56;;;;;;;6.85;4.25;;;-3.30;99.90;;;;;;5029985;23;20221;-93
2022/12/13 08:48:22;;;;;;;7.25;5.78;;;-3.00;99.90;;;;;;5041273;28;20178;-94
2022/12/13 08:50:49;;;;;;;7.65;4.70;;;-2.80;99.90;;;;;;5057906;28;20277;-94
2022/12/13 08:53:16;;;;;;;8.75;5.07;;;-2.80;99.90;;;;;;5046325;28;20261;-94
2022/12/13 08:55:43;;;;;;;6.75;5.07;;;-2.80;99.90;;;;;;5027463;28;20283;-92
2022/12/13 08:58:11;;;;;;;9.95;5.78;;;-3.00;99.90;;;;;;5018609;28;20201;-93
2022/12/13 09:00:41;;;;;;;6.55;5.28;;;-3.10;99.90;;;;;;5018401;28;20188;-93
2022/12/13 09:03:08;;;;;;;7.53;4.95;;;-3.30;99.90;;;;;;5018835;28;20184;-93
2022/12/13 09:05:35;;;;;;;10.10;4.60;;;-3.30;99.90;;;;;;5018258;28;20227;-93
2022/12/13 09:08:04;;;;;;;9.57;5.00;;;-3.30;99.90;;;;;;5018692;28;20219;-92
2022/12/13 09:13:12;;;;;;;7.60;5.20;;;-3.30;99.90;;;;;;5037014;28;20382;-94
2022/12/13 09:16:20;;;;;;;;;;;;;;;;;;;;;
2022/12/13 09:19:19;;;;;;;8.63;5.30;;;-2.70;99.90;;;;;;5031815;28;20322;-95
2022/12/13 09:24:43;;;;;;;8.50;4.68;;;-1.60;99.90;;;;;;4994381;28;20232;-93
2022/12/13 09:30:22;;;;;;;6.95;4.95;;;-0.60;99.90;;;;;;4993465;28;20180;-95
2022/12/13 09:35:45;;;;;;;7.80;5.10;;;2.30;99.90;;;;;;5003522;23;20239;-65
2022/12/13 09:38:12;;;;;;;9.18;5.10;;;4.00;99.90;;;;;;4976506;28;20270;-65
2022/12/13 09:40:40;;;;;;;9.00;6.20;;;5.30;99.10;;;;;;4971518;28;20204;-64
2022/12/13 09:43:08;;;;;;;11.10;6.40;;;6.00;98.30;;;;;;4971257;28;20208;-65
2022/12/13 09:45:36;;;;;;;9.20;7.00;;;6.70;97.50;;;;;;4972096;28;20228;-65
2022/12/13 09:48:06;;;;;;;12.43;6.60;;;6.70;96.30;;;;;;4971788;28;20815;-65
2022/12/13 09:50:35;;;;;;;10.80;5.97;;;7.00;96.30;;;;;;4971385;28;20292;-65
2022/12/13 09:53:06;;;;;;;10.25;6.90;;;6.90;95.30;;;;;;4971595;28;20213;-65
2022/12/13 09:55:39;;;;;;;11.23;6.43;;;6.70;95.60;;;;;;4971329;28;20684;-65
2022/12/13 09:58:11;;;;;;;9.60;6.40;;;6.90;94.70;;;;;;4991022;28;20931;-66
2022/12/13 10:00:38;;;;;;;8.20;5.80;;;6.60;94.60;;;;;;4990640;28;20210;-65
2022/12/13 10:03:06;;;;;;;7.40;6.53;;;6.00;93.70;;;;;;4991451;28;20611;-66
2022/12/13 10:05:36;;;;;;;8.13;6.30;;;5.90;95.00;;;;;;4978770;28;20224;-64
2022/12/13 10:08:07;;;;;;;7.90;5.47;;;5.20;94.60;;;;;;4971770;28;20227;-64
2022/12/13 10:10:34;;;;;;;9.82;5.90;;;5.20;95.20;;;;;;4970979;28;20594;-66
2022/12/13 10:13:09;;;;;;;10.43;5.30;;;5.30;94.80;;;;;;4971425;28;20671;-65
2022/12/13 10:15:39;;;;;;;8.65;5.97;;;5.30;94.60;;;;;;4971753;28;20218;-65
2022/12/13 10:18:10;;;;;;;10.88;6.18;;;5.60;95.20;;;;;;4971563;28;20227;-65
2022/12/13 10:20:37;;;;;;;9.13;5.70;;;5.70;94.30;;;;;;4970910;28;20208;-66
2022/12/13 10:23:04;;;;;;;10.65;6.07;;;5.80;93.80;;;;;;4971463;28;20203;-65
2022/12/13 10:25:47;;;;;;;9.35;6.32;;;5.60;93.50;;;;;;4970436;28;20672;-66
2022/12/13 10:28:17;;;;;;;10.32;5.82;;;5.60;94.00;;;;;;4970356;28;20521;-65
2022/12/13 10:30:45;;;;;;;9.40;5.60;;;6.00;93.50;;;;;;4970652;28;20227;-65
2022/12/13 10:33:23;;;;;;;7.78;5.55;;;6.00;93.20;;;;;;4971983;28;20207;-65
2022/12/13 10:36:07;;;;;;;8.48;6.20;;;5.80;91.80;;;;;;4966466;28;20578;-65
2022/12/13 10:38:36;;;;;;;12.25;5.75;;;5.80;93.10;;;;;;4985931;28;20223;-65
2022/12/13 10:41:23;;;;;;;7.22;5.40;;;5.80;92.90;;;;;;4973156;28;20208;-64
2022/12/13 10:44:08;;;;;;;7.80;5.68;;;5.50;92.50;;;;;;4970637;28;20214;-67
2022/12/13 10:46:35;;;;;;;13.75;5.75;;;4.70;92.10;;;;;;4971560;28;20718;-66
2022/12/13 10:49:04;;;;;;;7.97;5.20;;;4.10;92.40;;;;;;4971349;28;20200;-65
2022/12/13 10:51:38;;;;;;;7.78;5.72;;;3.90;93.10;;;;;;4971242;28;20214;-66
2022/12/13 10:54:05;;;;;;;7.75;5.15;;;4.00;93.80;;;;;;4971211;28;20295;-66
2022/12/13 10:56:36;;;;;;;12.30;5.40;;;3.80;93.30;;;;;;4971334;28;20695;-66
2022/12/13 10:59:11;;;;;;;5.32;4.82;;;3.80;92.70;;;;;;4971769;28;20208;-66
2022/12/13 11:01:38;;;;;;;8.75;5.88;;;3.50;93.90;;;;;;4971202;28;20357;-64
2022/12/13 11:04:24;;;;;;;9.25;5.43;;;3.70;94.60;;;;;;4971373;28;20211;-65
2022/12/13 11:06:51;;;;;;;9.07;5.35;;;4.30;94.30;;;;;;4971374;28;20220;-65
2022/12/13 11:09:26;;;;;;;7.78;5.20;;;4.50;94.30;;;;;;4974448;28;20584;-65
2022/12/13 11:11:55;;;;;;;10.73;5.32;;;4.80;93.60;;;;;;4952332;28;20218;-65
2022/12/13 11:14:24;;;;;;;8.63;5.90;;;5.20;92.90;;;;;;4956008;28;20375;-65
2022/12/13 11:16:55;;;;;;;8.73;6.20;;;5.10;92.60;;;;;;4955678;28;20228;-65
2022/12/13 11:19:27;;;;;;;9.23;4.88;;;5.20;91.90;;;;;;4954977;29;20212;-65
2022/12/13 11:21:55;;;;;;;6.75;4.95;;;5.10;92.50;;;;;;4955148;29;20643;-64
2022/12/13 11:24:24;;;;;;;7.60;5.18;;;4.70;92.50;;;;;;4955614;28;20224;-64
2022/12/13 11:26:56;;;;;;;7.47;5.53;;;4.20;92.60;;;;;;4964066;28;20730;-66
2022/12/13 11:29:56;;;;;;;7.40;5.05;;;3.70;92.30;;;;;;4974963;28;20212;-65
2022/12/13 11:32:35;;;;;;;7.63;4.93;;;2.90;93.70;;;;;;4966198;28;20204;-65
2022/12/13 11:35:13;;;;;;;10.15;4.95;;;2.40;94.70;;;;;;4974603;28;20214;-66
2022/12/13 11:37:51;;;;;;;5.60;3.92;;;2.40;94.90;;;;;;4974519;28;20224;-64
2022/12/13 11:40:22;;;;;;;7.57;5.28;;;2.40;94.40;;;;;;4974626;28;20199;-66
2022/12/13 11:42:51;;;;;;;6.13;5.22;;;2.30;93.70;;;;;;4974581;28;20629;-64
2022/12/13 11:45:22;;;;;;;10.10;4.68;;;2.20;94.10;;;;;;4974312;28;20223;-66
2022/12/13 11:47:55;;;;;;;10.27;5.55;;;2.10;94.90;;;;;;4974772;28;20228;-64
2022/12/13 11:50:28;;;;;;;8.50;4.80;;;2.10;95.00;;;;;;4974237;28;20208;-65
2022/12/13 11:53:01;;;;;;;9.70;5.13;;;1.90;95.60;;;;;;4974276;28;20214;-65
2022/12/13 11:55:35;;;;;;;6.55;5.07;;;1.90;95.20;;;;;;4974376;28;20682;-65
2022/12/13 11:58:11;;;;;;;10.52;5.93;;;2.10;95.20;;;;;;4973636;28;20703;-65
2022/12/13 12:00:43;;;;;;;9.13;6.22;;;2.10;95.70;;;;;;4973291;28;20301;-65
2022/12/13 12:03:18;;;;;;;6.10;4.90;;;1.80;95.60;;;;;;4973801;28;20232;-65
2022/12/13 12:05:49;;;;;;;7.82;4.72;;;1.80;95.90;;;;;;4972747;28;20227;-66
2022/12/13 12:08:23;;;;;;;8.80;5.07;;;2.00;96.10;;;;;;4973930;28;20221;-66
2022/12/13 12:11:00;;;;;;;9.40;5.13;;;2.10;95.60;;;;;;4972059;28;20205;-64
2022/12/13 12:13:32;;;;;;;7.85;4.50;;;1.90;95.70;;;;;;4974382;28;20204;-66
2022/12/13 12:16:06;;;;;;;8.48;5.60;;;1.70;95.40;;;;;;4974082;28;20798;-66
2022/12/13 12:18:33;;;;;;;7.57;4.30;;;1.60;95.40;;;;;;4974000;28;20227;-65
2022/12/13 12:21:11;;;;;;;5.18;4.05;;;1.60;96.20;;;;;;4973230;28;20208;-64
2022/12/13 12:23:51;;;;;;;6.00;4.28;;;1.40;96.10;;;;;;4973025;28;20209;-64
2022/12/13 12:26:21;;;;;;;6.15;4.28;;;1.10;94.90;;;;;;4972965;28;20605;-65
2022/12/13 12:29:05;;;;;;;7.60;4.30;;;0.90;95.20;;;;;;4954266;29;20561;-64
2022/12/13 12:31:39;;;;;;;6.80;4.43;;;0.70;95.40;;;;;;4953686;29;20208;-64
2022/12/13 12:34:14;;;;;;;7.68;4.75;;;0.60;95.80;;;;;;4959117;28;20216;-65
2022/12/13 12:36:55;;;;;;;5.53;3.53;;;0.50;95.60;;;;;;4972825;28;20235;-66
2022/12/13 12:39:43;;;;;;;6.65;4.07;;;0.50;95.90;;;;;;4973136;28;20203;-62
2022/12/13 12:42:34;;;;;;;7.93;4.95;;;0.40;95.90;;;;;;4963747;28;20555;-64
2022/12/13 12:45:17;;;;;;;5.32;3.65;;;0.40;95.30;;;;;;4962920;28;20302;-65
2022/12/13 12:47:50;;;;;;;6.13;3.33;;;0.40;95.50;;;;;;4955394;28;20230;-65
2022/12/13 12:50:35;;;;;;;7.55;4.50;;;0.40;95.70;;;;;;4971090;28;20688;-64
2022/12/13 12:53:26;;;;;;;9.88;4.13;;;0.50;95.70;;;;;;4972470;28;20204;-64
2022/12/13 12:56:05;;;;;;;3.88;3.30;;;0.50;95.60;;;;;;4972476;28;20204;-64
2022/12/13 12:58:40;;;;;;;5.15;4.05;;;0.50;95.50;;;;;;4972999;28;20223;-64
2022/12/13 13:01:17;;;;;;;6.07;4.25;;;0.30;95.30;;;;;;4972700;28;20574;-66
2022/12/13 13:03:45;;;;;;;5.88;3.83;;;0.30;95.30;;;;;;4961761;28;20214;-64
2022/12/13 13:06:15;;;;;;;8.93;4.18;;;0.20;95.00;;;;;;4972089;28;20567;-65
2022/12/13 13:08:47;;;;;;;5.97;3.50;;;0.00;95.40;;;;;;4972252;28;20220;-65
2022/12/13 13:11:15;;;;;;;7.80;3.80;;;0.00;95.60;;;;;;4971887;28;20613;-66
2022/12/13 13:13:47;;;;;;;5.45;3.75;;;-0.10;95.60;;;;;;4972477;28;20204;-65
2022/12/13 13:16:32;;;;;;;5.90;3.92;;;-0.30;96.00;;;;;;4972426;28;20200;-65
2022/12/13 13:19:00;;;;;;;14.70;3.70;;;-0.20;95.90;;;;;;4971715;28;20602;-65
2022/12/13 13:21:33;;;;;;;7.22;4.50;;;-0.10;96.00;;;;;;4971629;28;20211;-65